sensor_id;sensor_type;location;lat;lon;timestamp;pressure;altitude;pressure_sealevel;temperature;humidity
63500;BME280;49654;51.142;14.924;2023-04-27T00:01:55;99432.88;;;2.97;65.76
63500;BME280;49654;51.142;14.924;2023-04-27T00:04:22;99357.44;;;2.45;65.89
63500;BME280;49654;51.142;14.924;2023-04-27T00:06:49;99349.25;;;2.40;66.37
63500;BME280;49654;51.142;14.924;2023-04-27T00:09:17;99356.72;;;2.43;66.62
63500;BME280;49654;51.142;14.924;2023-04-27T00:11:43;99338.31;;;2.38;66.63
63500;BME280;49654;51.142;14.924;2023-04-27T00:14:12;99337.50;;;2.37;66.46
63500;BME280;49654;51.142;14.924;2023-04-27T00:16:39;99427.75;;;2.97;66.37
63500;BME280;49654;51.142;14.924;2023-04-27T00:19:06;99407.16;;;2.76;65.99
63500;BME280;49654;51.142;14.924;2023-04-27T00:21:33;99369.75;;;2.51;66.72
63500;BME280;49654;51.142;14.924;2023-04-27T00:24:00;99385.16;;;2.62;67.46
63500;BME280;49654;51.142;14.924;2023-04-27T00:26:27;99410.19;;;2.70;67.39
63500;BME280;49654;51.142;14.924;2023-04-27T00:28:54;99422.41;;;2.78;68.08
63500;BME280;49654;51.142;14.924;2023-04-27T00:31:22;99418.69;;;2.82;68.99
63500;BME280;49654;51.142;14.924;2023-04-27T00:33:49;99366.50;;;2.49;69.13
63500;BME280;49654;51.142;14.924;2023-04-27T00:36:16;99421.38;;;2.80;69.47
63500;BME280;49654;51.142;14.924;2023-04-27T00:38:43;99330.97;;;2.22;69.95
63500;BME280;49654;51.142;14.924;2023-04-27T00:41:10;99424.75;;;2.81;69.71
63500;BME280;49654;51.142;14.924;2023-04-27T00:43:41;99374.66;;;2.43;69.58
63500;BME280;49654;51.142;14.924;2023-04-27T00:46:10;99387.94;;;2.48;70.34
63500;BME280;49654;51.142;14.924;2023-04-27T00:48:39;99392.94;;;2.61;69.62
63500;BME280;49654;51.142;14.924;2023-04-27T00:51:06;99391.88;;;2.52;69.70
63500;BME280;49654;51.142;14.924;2023-04-27T00:53:35;99396.22;;;2.51;70.04
63500;BME280;49654;51.142;14.924;2023-04-27T00:56:02;99409.50;;;2.45;69.62
63500;BME280;49654;51.142;14.924;2023-04-27T00:58:29;99393.06;;;2.25;69.76
63500;BME280;49654;51.142;14.924;2023-04-27T01:00:56;99305.00;;;1.70;70.45
63500;BME280;49654;51.142;14.924;2023-04-27T01:03:24;99426.16;;;2.62;70.56
63500;BME280;49654;51.142;14.924;2023-04-27T01:05:53;99415.34;;;2.70;69.93
63500;BME280;49654;51.142;14.924;2023-04-27T01:08:21;99411.56;;;2.74;69.63
63500;BME280;49654;51.142;14.924;2023-04-27T01:10:48;99435.22;;;3.00;70.01
63500;BME280;49654;51.142;14.924;2023-04-27T01:13:15;99427.72;;;3.08;69.38
63500;BME280;49654;51.142;14.924;2023-04-27T01:15:42;99348.56;;;2.49;69.12
63500;BME280;49654;51.142;14.924;2023-04-27T01:18:09;99365.56;;;2.50;69.93
63500;BME280;49654;51.142;14.924;2023-04-27T01:20:36;99407.50;;;2.83;70.00
63500;BME280;49654;51.142;14.924;2023-04-27T01:23:04;99432.66;;;3.00;69.24
63500;BME280;49654;51.142;14.924;2023-04-27T01:25:33;99381.88;;;2.60;69.20
63500;BME280;49654;51.142;14.924;2023-04-27T01:28:00;99420.28;;;3.05;67.31
63500;BME280;49654;51.142;14.924;2023-04-27T01:30:26;99344.09;;;2.73;66.81
63500;BME280;49654;51.142;14.924;2023-04-27T01:32:54;99388.78;;;3.03;66.45
63500;BME280;49654;51.142;14.924;2023-04-27T01:35:21;99417.47;;;3.08;66.36
63500;BME280;49654;51.142;14.924;2023-04-27T01:37:48;99439.38;;;3.12;66.82
63500;BME280;49654;51.142;14.924;2023-04-27T01:40:15;99400.94;;;2.90;66.17
63500;BME280;49654;51.142;14.924;2023-04-27T01:42:44;99370.56;;;2.51;66.47
63500;BME280;49654;51.142;14.924;2023-04-27T01:45:11;99404.25;;;2.58;67.32
63500;BME280;49654;51.142;14.924;2023-04-27T01:47:38;99449.44;;;2.93;67.46
63500;BME280;49654;51.142;14.924;2023-04-27T01:50:06;99449.91;;;3.09;67.12
63500;BME280;49654;51.142;14.924;2023-04-27T01:52:33;99388.25;;;2.77;66.72
63500;BME280;49654;51.142;14.924;2023-04-27T01:55:00;99403.06;;;2.73;67.00
63500;BME280;49654;51.142;14.924;2023-04-27T01:57:27;99446.53;;;2.86;67.16
63500;BME280;49654;51.142;14.924;2023-04-27T01:59:56;99413.91;;;2.77;68.13
63500;BME280;49654;51.142;14.924;2023-04-27T02:02:23;99405.66;;;2.62;68.04
63500;BME280;49654;51.142;14.924;2023-04-27T02:04:49;99358.81;;;2.38;68.34
63500;BME280;49654;51.142;14.924;2023-04-27T02:07:17;99442.69;;;2.92;68.48
63500;BME280;49654;51.142;14.924;2023-04-27T02:09:44;99427.31;;;2.92;68.21
63500;BME280;49654;51.142;14.924;2023-04-27T02:12:10;99431.34;;;3.06;66.91
63500;BME280;49654;51.142;14.924;2023-04-27T02:14:37;99380.19;;;2.82;66.24
63500;BME280;49654;51.142;14.924;2023-04-27T02:17:06;99439.81;;;3.29;65.55
63500;BME280;49654;51.142;14.924;2023-04-27T02:19:33;99406.03;;;3.12;65.70
63500;BME280;49654;51.142;14.924;2023-04-27T02:22:01;99416.25;;;3.23;65.18
63500;BME280;49654;51.142;14.924;2023-04-27T02:24:28;99429.06;;;3.35;65.59
63500;BME280;49654;51.142;14.924;2023-04-27T02:26:55;99421.41;;;3.23;66.04
63500;BME280;49654;51.142;14.924;2023-04-27T02:29:22;99382.84;;;3.03;65.66
63500;BME280;49654;51.142;14.924;2023-04-27T02:31:49;99376.44;;;2.97;65.77
63500;BME280;49654;51.142;14.924;2023-04-27T02:34:17;99444.25;;;3.26;66.20
63500;BME280;49654;51.142;14.924;2023-04-27T02:36:44;99371.59;;;2.83;66.33
63500;BME280;49654;51.142;14.924;2023-04-27T02:39:11;99441.03;;;3.13;66.84
63500;BME280;49654;51.142;14.924;2023-04-27T02:41:38;99383.34;;;2.74;66.83
63500;BME280;49654;51.142;14.924;2023-04-27T02:44:05;99376.38;;;2.65;66.74
63500;BME280;49654;51.142;14.924;2023-04-27T02:46:32;99460.47;;;3.16;67.15
63500;BME280;49654;51.142;14.924;2023-04-27T02:48:59;99443.84;;;2.99;67.63
63500;BME280;49654;51.142;14.924;2023-04-27T02:51:27;99435.22;;;2.78;67.58
63500;BME280;49654;51.142;14.924;2023-04-27T02:53:54;99428.38;;;2.67;68.68
63500;BME280;49654;51.142;14.924;2023-04-27T02:56:21;99423.34;;;2.65;68.75
63500;BME280;49654;51.142;14.924;2023-04-27T02:58:48;99384.19;;;2.52;68.53
63500;BME280;49654;51.142;14.924;2023-04-27T03:01:15;99440.84;;;2.71;67.92
63500;BME280;49654;51.142;14.924;2023-04-27T03:03:44;99458.91;;;2.81;68.09
63500;BME280;49654;51.142;14.924;2023-04-27T03:06:11;99436.41;;;2.73;67.79
63500;BME280;49654;51.142;14.924;2023-04-27T03:08:39;99471.13;;;2.89;67.92
63500;BME280;49654;51.142;14.924;2023-04-27T03:11:06;99470.31;;;2.77;68.70
63500;BME280;49654;51.142;14.924;2023-04-27T03:13:34;99445.03;;;2.39;68.55
63500;BME280;49654;51.142;14.924;2023-04-27T03:16:07;99431.97;;;2.31;69.82
63500;BME280;49654;51.142;14.924;2023-04-27T03:18:35;99396.53;;;1.91;69.43
63500;BME280;49654;51.142;14.924;2023-04-27T03:21:06;99465.53;;;2.39;70.08
63500;BME280;49654;51.142;14.924;2023-04-27T03:23:33;99452.94;;;2.24;69.96
63500;BME280;49654;51.142;14.924;2023-04-27T03:26:05;99482.41;;;2.30;69.75
63500;BME280;49654;51.142;14.924;2023-04-27T03:28:33;99363.16;;;1.57;69.96
63500;BME280;49654;51.142;14.924;2023-04-27T03:31:00;99451.03;;;2.04;70.15
63500;BME280;49654;51.142;14.924;2023-04-27T03:33:30;99481.47;;;2.31;70.83
63500;BME280;49654;51.142;14.924;2023-04-27T03:35:57;99443.94;;;2.08;70.61
63500;BME280;49654;51.142;14.924;2023-04-27T03:38:25;99459.44;;;2.17;70.42
63500;BME280;49654;51.142;14.924;2023-04-27T03:40:52;99409.28;;;1.80;70.26
63500;BME280;49654;51.142;14.924;2023-04-27T03:43:21;99453.59;;;1.93;69.95
63500;BME280;49654;51.142;14.924;2023-04-27T03:45:49;99443.34;;;1.93;71.15
63500;BME280;49654;51.142;14.924;2023-04-27T03:48:16;99424.00;;;1.89;71.20
63500;BME280;49654;51.142;14.924;2023-04-27T03:50:44;99504.31;;;2.34;71.17
63500;BME280;49654;51.142;14.924;2023-04-27T03:53:11;99424.47;;;1.94;71.26
63500;BME280;49654;51.142;14.924;2023-04-27T03:55:39;99505.63;;;2.51;71.46
63500;BME280;49654;51.142;14.924;2023-04-27T03:58:07;99447.91;;;2.12;71.08
63500;BME280;49654;51.142;14.924;2023-04-27T04:00:36;99422.06;;;2.15;70.37
63500;BME280;49654;51.142;14.924;2023-04-27T04:03:04;99517.19;;;2.68;69.94
63500;BME280;49654;51.142;14.924;2023-04-27T04:05:31;99472.63;;;2.35;69.77
63500;BME280;49654;51.142;14.924;2023-04-27T04:07:58;99491.66;;;2.55;70.31
63500;BME280;49654;51.142;14.924;2023-04-27T04:10:25;99522.56;;;2.87;69.38
63500;BME280;49654;51.142;14.924;2023-04-27T04:12:52;99482.91;;;2.69;69.52
63500;BME280;49654;51.142;14.924;2023-04-27T04:15:19;99486.41;;;2.68;68.60
63500;BME280;49654;51.142;14.924;2023-04-27T04:17:48;99525.25;;;2.97;68.90
63500;BME280;49654;51.142;14.924;2023-04-27T04:20:15;99518.25;;;2.88;69.58
63500;BME280;49654;51.142;14.924;2023-04-27T04:22:42;99507.28;;;2.74;69.88
63500;BME280;49654;51.142;14.924;2023-04-27T04:25:09;99532.47;;;3.03;69.60
63500;BME280;49654;51.142;14.924;2023-04-27T04:27:36;99514.63;;;3.01;69.15
63500;BME280;49654;51.142;14.924;2023-04-27T04:30:04;99507.06;;;3.00;68.88
63500;BME280;49654;51.142;14.924;2023-04-27T04:32:31;99528.25;;;3.36;69.13
63500;BME280;49654;51.142;14.924;2023-04-27T04:35:00;99504.00;;;3.17;68.87
63500;BME280;49654;51.142;14.924;2023-04-27T04:37:27;99506.81;;;3.25;68.70
63500;BME280;49654;51.142;14.924;2023-04-27T04:39:54;99534.84;;;3.61;67.89
63500;BME280;49654;51.142;14.924;2023-04-27T04:42:21;99497.38;;;3.58;67.03
63500;BME280;49654;51.142;14.924;2023-04-27T04:44:48;99537.41;;;3.93;66.14
63500;BME280;49654;51.142;14.924;2023-04-27T04:47:16;99517.97;;;3.79;65.40
63500;BME280;49654;51.142;14.924;2023-04-27T04:49:43;99418.31;;;3.41;64.75
63500;BME280;49654;51.142;14.924;2023-04-27T04:52:12;99544.53;;;4.21;64.91
63500;BME280;49654;51.142;14.924;2023-04-27T04:54:39;99485.84;;;4.06;64.38
63500;BME280;49654;51.142;14.924;2023-04-27T04:57:06;99520.41;;;4.34;63.61
63500;BME280;49654;51.142;14.924;2023-04-27T04:59:33;99545.97;;;4.56;63.14
63500;BME280;49654;51.142;14.924;2023-04-27T05:02:00;99520.44;;;4.64;62.62
63500;BME280;49654;51.142;14.924;2023-04-27T05:04:27;99533.38;;;4.84;62.92
63500;BME280;49654;51.142;14.924;2023-04-27T05:06:54;99469.78;;;4.55;62.02
63500;BME280;49654;51.142;14.924;2023-04-27T05:09:23;99526.16;;;4.98;62.07
63500;BME280;49654;51.142;14.924;2023-04-27T05:11:50;99474.06;;;4.75;62.35
63500;BME280;49654;51.142;14.924;2023-04-27T05:14:17;99487.69;;;4.97;61.89
63500;BME280;49654;51.142;14.924;2023-04-27T05:16:44;99549.84;;;5.42;61.05
63500;BME280;49654;51.142;14.924;2023-04-27T05:19:14;99534.38;;;5.33;61.83
63500;BME280;49654;51.142;14.924;2023-04-27T05:21:43;99480.09;;;5.05;60.87
63500;BME280;49654;51.142;14.924;2023-04-27T05:24:10;99515.72;;;5.40;60.73
63500;BME280;49654;51.142;14.924;2023-04-27T05:26:38;99553.66;;;5.48;61.13
63500;BME280;49654;51.142;14.924;2023-04-27T05:29:05;99554.38;;;5.69;61.62
63500;BME280;49654;51.142;14.924;2023-04-27T05:31:32;99516.69;;;5.49;60.55
63500;BME280;49654;51.142;14.924;2023-04-27T05:33:59;99443.00;;;5.17;60.92
63500;BME280;49654;51.142;14.924;2023-04-27T05:36:26;99516.53;;;5.60;60.70
63500;BME280;49654;51.142;14.924;2023-04-27T05:38:54;99522.78;;;5.67;60.83
63500;BME280;49654;51.142;14.924;2023-04-27T05:41:21;99513.69;;;5.53;61.28
63500;BME280;49654;51.142;14.924;2023-04-27T05:43:49;99536.94;;;6.02;60.78
63500;BME280;49654;51.142;14.924;2023-04-27T05:46:18;99570.72;;;6.38;59.76
63500;BME280;49654;51.142;14.924;2023-04-27T05:48:45;99465.53;;;6.12;59.82
63500;BME280;49654;51.142;14.924;2023-04-27T05:51:12;99539.84;;;6.65;58.76
63500;BME280;49654;51.142;14.924;2023-04-27T05:53:40;99568.78;;;7.06;58.06
63500;BME280;49654;51.142;14.924;2023-04-27T05:56:07;99579.28;;;7.32;57.47
63500;BME280;49654;51.142;14.924;2023-04-27T05:58:36;99548.28;;;7.32;57.11
63500;BME280;49654;51.142;14.924;2023-04-27T06:01:04;99569.63;;;7.80;57.10
63500;BME280;49654;51.142;14.924;2023-04-27T06:03:32;99566.75;;;8.00;56.05
63500;BME280;49654;51.142;14.924;2023-04-27T06:06:00;99546.44;;;8.06;56.64
63500;BME280;49654;51.142;14.924;2023-04-27T06:08:27;99564.59;;;8.32;56.60
63500;BME280;49654;51.142;14.924;2023-04-27T06:10:54;99555.66;;;8.44;56.02
63500;BME280;49654;51.142;14.924;2023-04-27T06:13:21;99555.97;;;8.05;55.79
63500;BME280;49654;51.142;14.924;2023-04-27T06:15:48;99512.31;;;8.02;55.03
63500;BME280;49654;51.142;14.924;2023-04-27T06:18:17;99491.16;;;8.07;54.82
63500;BME280;49654;51.142;14.924;2023-04-27T06:20:44;99565.06;;;8.45;54.63
63500;BME280;49654;51.142;14.924;2023-04-27T06:23:11;99573.03;;;8.77;54.48
63500;BME280;49654;51.142;14.924;2023-04-27T06:25:38;99557.16;;;9.07;54.70
63500;BME280;49654;51.142;14.924;2023-04-27T06:28:05;99565.34;;;9.28;51.95
63500;BME280;49654;51.142;14.924;2023-04-27T06:30:32;99559.34;;;9.86;51.50
63500;BME280;49654;51.142;14.924;2023-04-27T06:32:59;99557.41;;;9.88;48.70
63500;BME280;49654;51.142;14.924;2023-04-27T06:35:27;99484.94;;;9.87;47.82
63500;BME280;49654;51.142;14.924;2023-04-27T06:37:55;99492.56;;;10.13;46.53
63500;BME280;49654;51.142;14.924;2023-04-27T06:40:24;99561.34;;;10.33;47.38
63500;BME280;49654;51.142;14.924;2023-04-27T06:42:51;99569.91;;;10.74;46.69
63500;BME280;49654;51.142;14.924;2023-04-27T06:45:18;99552.06;;;10.71;46.54
63500;BME280;49654;51.142;14.924;2023-04-27T06:47:45;99561.16;;;10.59;45.75
63500;BME280;49654;51.142;14.924;2023-04-27T06:50:13;99567.00;;;10.61;46.11
63500;BME280;49654;51.142;14.924;2023-04-27T06:52:41;99566.38;;;10.59;45.40
63500;BME280;49654;51.142;14.924;2023-04-27T06:55:08;99538.13;;;10.40;46.28
63500;BME280;49654;51.142;14.924;2023-04-27T06:57:35;99498.56;;;10.30;47.40
63500;BME280;49654;51.142;14.924;2023-04-27T07:00:03;99491.25;;;9.84;46.60
63500;BME280;49654;51.142;14.924;2023-04-27T07:02:30;99541.41;;;10.25;47.43
63500;BME280;49654;51.142;14.924;2023-04-27T07:04:57;99566.84;;;10.55;46.33
63500;BME280;49654;51.142;14.924;2023-04-27T07:07:24;99525.78;;;10.09;46.17
63500;BME280;49654;51.142;14.924;2023-04-27T07:09:52;99544.16;;;10.32;45.86
63500;BME280;49654;51.142;14.924;2023-04-27T07:12:19;99569.59;;;10.61;45.82
63500;BME280;49654;51.142;14.924;2023-04-27T07:14:46;99577.56;;;10.51;45.61
63500;BME280;49654;51.142;14.924;2023-04-27T07:17:15;99573.66;;;10.31;47.38
63500;BME280;49654;51.142;14.924;2023-04-27T07:19:42;99575.16;;;10.34;46.46
63500;BME280;49654;51.142;14.924;2023-04-27T07:22:09;99576.25;;;10.56;45.90
63500;BME280;49654;51.142;14.924;2023-04-27T07:24:36;99566.00;;;10.70;45.50
63500;BME280;49654;51.142;14.924;2023-04-27T07:27:04;99578.13;;;10.94;44.69
63500;BME280;49654;51.142;14.924;2023-04-27T07:29:31;99580.97;;;11.24;44.47
63500;BME280;49654;51.142;14.924;2023-04-27T07:31:58;99560.97;;;10.77;45.05
63500;BME280;49654;51.142;14.924;2023-04-27T07:34:25;99584.88;;;10.48;47.45
63500;BME280;49654;51.142;14.924;2023-04-27T07:36:52;99567.34;;;10.50;46.20
63500;BME280;49654;51.142;14.924;2023-04-27T07:39:19;99533.59;;;10.42;45.71
63500;BME280;49654;51.142;14.924;2023-04-27T07:41:46;99579.97;;;10.61;44.97
63500;BME280;49654;51.142;14.924;2023-04-27T07:44:16;99580.97;;;10.60;44.15
63500;BME280;49654;51.142;14.924;2023-04-27T07:46:43;99590.13;;;11.03;45.22
63500;BME280;49654;51.142;14.924;2023-04-27T07:49:12;99575.09;;;10.74;45.25
63500;BME280;49654;51.142;14.924;2023-04-27T07:51:39;99575.06;;;10.91;46.84
63500;BME280;49654;51.142;14.924;2023-04-27T07:54:05;99582.50;;;11.10;46.46
63500;BME280;49654;51.142;14.924;2023-04-27T07:56:32;99611.44;;;10.74;46.38
63500;BME280;49654;51.142;14.924;2023-04-27T07:58:59;99531.31;;;10.22;47.34
63500;BME280;49654;51.142;14.924;2023-04-27T08:01:28;99515.44;;;10.34;45.44
63500;BME280;49654;51.142;14.924;2023-04-27T08:03:55;99588.22;;;10.89;45.40
63500;BME280;49654;51.142;14.924;2023-04-27T08:06:22;99598.50;;;11.22;46.22
63500;BME280;49654;51.142;14.924;2023-04-27T08:08:49;99596.66;;;11.39;44.92
63500;BME280;49654;51.142;14.924;2023-04-27T08:11:16;99595.34;;;11.43;46.31
63500;BME280;49654;51.142;14.924;2023-04-27T08:13:43;99598.28;;;11.48;45.43
63500;BME280;49654;51.142;14.924;2023-04-27T08:16:10;99589.00;;;11.76;45.18
63500;BME280;49654;51.142;14.924;2023-04-27T08:18:38;99586.63;;;11.67;45.92
63500;BME280;49654;51.142;14.924;2023-04-27T08:21:05;99594.72;;;11.72;44.06
63500;BME280;49654;51.142;14.924;2023-04-27T08:23:32;99523.56;;;11.34;43.65
63500;BME280;49654;51.142;14.924;2023-04-27T08:25:59;99596.88;;;11.60;44.47
63500;BME280;49654;51.142;14.924;2023-04-27T08:28:26;99587.38;;;12.07;45.58
63500;BME280;49654;51.142;14.924;2023-04-27T08:30:53;99530.91;;;12.30;44.85
63500;BME280;49654;51.142;14.924;2023-04-27T08:33:20;99589.41;;;12.57;42.25
63500;BME280;49654;51.142;14.924;2023-04-27T08:35:48;99582.59;;;12.56;42.33
63500;BME280;49654;51.142;14.924;2023-04-27T08:38:15;99585.88;;;11.81;43.05
63500;BME280;49654;51.142;14.924;2023-04-27T08:40:42;99591.44;;;11.78;44.06
63500;BME280;49654;51.142;14.924;2023-04-27T08:43:09;99589.19;;;11.75;43.38
63500;BME280;49654;51.142;14.924;2023-04-27T08:45:36;99585.88;;;11.81;44.01
63500;BME280;49654;51.142;14.924;2023-04-27T08:48:04;99584.28;;;11.80;43.99
63500;BME280;49654;51.142;14.924;2023-04-27T08:50:30;99592.13;;;11.41;43.13
63500;BME280;49654;51.142;14.924;2023-04-27T08:52:59;99592.41;;;11.46;44.91
63500;BME280;49654;51.142;14.924;2023-04-27T08:55:26;99595.81;;;11.46;41.88
63500;BME280;49654;51.142;14.924;2023-04-27T08:57:54;99577.25;;;11.26;43.79
63500;BME280;49654;51.142;14.924;2023-04-27T09:00:23;99596.56;;;11.63;42.98
63500;BME280;49654;51.142;14.924;2023-04-27T09:02:50;99577.75;;;11.53;41.93
63500;BME280;49654;51.142;14.924;2023-04-27T09:05:18;99589.88;;;12.00;42.54
63500;BME280;49654;51.142;14.924;2023-04-27T09:07:55;99590.81;;;12.30;38.35
63500;BME280;49654;51.142;14.924;2023-04-27T09:10:25;99583.75;;;11.93;40.12
63500;BME280;49654;51.142;14.924;2023-04-27T09:12:55;99594.38;;;12.06;42.09
63500;BME280;49654;51.142;14.924;2023-04-27T09:15:22;99594.44;;;11.98;41.57
63500;BME280;49654;51.142;14.924;2023-04-27T09:17:53;99587.50;;;12.13;42.23
63500;BME280;49654;51.142;14.924;2023-04-27T09:20:21;99590.81;;;12.45;39.09
63500;BME280;49654;51.142;14.924;2023-04-27T09:22:49;99593.63;;;13.25;37.52
63500;BME280;49654;51.142;14.924;2023-04-27T09:25:26;99590.09;;;13.48;38.88
63500;BME280;49654;51.142;14.924;2023-04-27T09:27:53;99585.03;;;14.19;36.23
63500;BME280;49654;51.142;14.924;2023-04-27T09:30:20;99586.47;;;13.64;37.88
63500;BME280;49654;51.142;14.924;2023-04-27T09:32:51;99586.69;;;13.84;37.37
63500;BME280;49654;51.142;14.924;2023-04-27T09:35:23;99595.69;;;13.30;37.46
63500;BME280;49654;51.142;14.924;2023-04-27T09:37:51;99592.81;;;12.95;38.76
63500;BME280;49654;51.142;14.924;2023-04-27T09:40:19;99589.00;;;12.83;41.25
63500;BME280;49654;51.142;14.924;2023-04-27T09:42:50;99538.84;;;12.51;40.31
63500;BME280;49654;51.142;14.924;2023-04-27T09:45:19;99572.88;;;12.50;39.87
63500;BME280;49654;51.142;14.924;2023-04-27T09:47:46;99539.53;;;11.85;39.77
63500;BME280;49654;51.142;14.924;2023-04-27T09:50:13;99588.16;;;12.53;40.22
63500;BME280;49654;51.142;14.924;2023-04-27T09:52:40;99588.50;;;13.02;38.14
63500;BME280;49654;51.142;14.924;2023-04-27T09:55:09;99586.38;;;13.72;37.16
63500;BME280;49654;51.142;14.924;2023-04-27T09:57:39;99588.31;;;12.89;37.07
63500;BME280;49654;51.142;14.924;2023-04-27T10:00:19;99583.91;;;13.49;36.39
63500;BME280;49654;51.142;14.924;2023-04-27T10:03:02;99572.88;;;12.50;37.39
63500;BME280;49654;51.142;14.924;2023-04-27T10:05:44;99579.97;;;13.23;37.19
63500;BME280;49654;51.142;14.924;2023-04-27T10:08:16;99590.94;;;13.34;36.65
63500;BME280;49654;51.142;14.924;2023-04-27T10:10:46;99578.59;;;13.42;37.12
63500;BME280;49654;51.142;14.924;2023-04-27T10:13:20;99583.66;;;13.80;35.88
63500;BME280;49654;51.142;14.924;2023-04-27T10:15:49;99586.81;;;13.61;35.88
63500;BME280;49654;51.142;14.924;2023-04-27T10:18:28;99592.50;;;13.64;35.53
63500;BME280;49654;51.142;14.924;2023-04-27T10:20:56;99591.94;;;13.33;35.02
63500;BME280;49654;51.142;14.924;2023-04-27T10:23:24;99587.63;;;13.61;35.71
63500;BME280;49654;51.142;14.924;2023-04-27T10:25:52;99586.78;;;13.54;34.83
63500;BME280;49654;51.142;14.924;2023-04-27T10:28:19;99583.56;;;13.22;34.22
63500;BME280;49654;51.142;14.924;2023-04-27T10:30:46;99578.91;;;13.69;36.10
63500;BME280;49654;51.142;14.924;2023-04-27T10:33:17;99584.38;;;13.38;37.49
63500;BME280;49654;51.142;14.924;2023-04-27T10:35:53;99578.34;;;13.95;35.43
63500;BME280;49654;51.142;14.924;2023-04-27T10:38:26;99550.03;;;13.92;38.32
63500;BME280;49654;51.142;14.924;2023-04-27T10:40:55;99570.56;;;14.66;32.76
63500;BME280;49654;51.142;14.924;2023-04-27T10:43:24;99572.94;;;14.61;32.37
63500;BME280;49654;51.142;14.924;2023-04-27T10:45:52;99566.34;;;14.71;31.47
63500;BME280;49654;51.142;14.924;2023-04-27T10:48:20;99554.78;;;14.52;32.36
63500;BME280;49654;51.142;14.924;2023-04-27T10:50:49;99571.50;;;14.37;33.85
63500;BME280;49654;51.142;14.924;2023-04-27T10:53:17;99500.50;;;14.26;33.60
63500;BME280;49654;51.142;14.924;2023-04-27T10:55:44;99570.34;;;15.50;32.67
63500;BME280;49654;51.142;14.924;2023-04-27T10:58:11;99567.13;;;16.42;32.75
63500;BME280;49654;51.142;14.924;2023-04-27T11:00:39;99565.91;;;16.25;30.93
63500;BME280;49654;51.142;14.924;2023-04-27T11:03:11;99566.50;;;16.07;30.29
63500;BME280;49654;51.142;14.924;2023-04-27T11:05:40;99576.28;;;15.65;29.99
63500;BME280;49654;51.142;14.924;2023-04-27T11:08:08;99541.88;;;16.61;28.97
63500;BME280;49654;51.142;14.924;2023-04-27T11:10:38;99569.09;;;16.93;32.43
63500;BME280;49654;51.142;14.924;2023-04-27T11:13:10;99525.94;;;16.83;28.56
63500;BME280;49654;51.142;14.924;2023-04-27T11:15:45;99549.03;;;17.19;28.08
63500;BME280;49654;51.142;14.924;2023-04-27T11:18:12;99494.44;;;16.89;28.13
63500;BME280;49654;51.142;14.924;2023-04-27T11:20:42;99563.00;;;17.06;29.42
63500;BME280;49654;51.142;14.924;2023-04-27T11:23:09;99543.34;;;16.24;30.80
63500;BME280;49654;51.142;14.924;2023-04-27T11:25:36;99566.06;;;15.97;30.79
63500;BME280;49654;51.142;14.924;2023-04-27T11:28:04;99556.19;;;16.85;29.89
63500;BME280;49654;51.142;14.924;2023-04-27T11:30:30;99552.94;;;18.86;27.55
63500;BME280;49654;51.142;14.924;2023-04-27T11:32:57;99553.34;;;17.51;29.48
63500;BME280;49654;51.142;14.924;2023-04-27T11:35:31;99550.47;;;17.15;29.83
63500;BME280;49654;51.142;14.924;2023-04-27T11:38:00;99568.25;;;16.99;27.75
63500;BME280;49654;51.142;14.924;2023-04-27T11:40:27;99567.09;;;16.82;28.55
63500;BME280;49654;51.142;14.924;2023-04-27T11:42:56;99565.47;;;17.46;29.49
63500;BME280;49654;51.142;14.924;2023-04-27T11:45:24;99566.47;;;17.90;28.44
63500;BME280;49654;51.142;14.924;2023-04-27T11:47:52;99558.03;;;18.13;28.24
63500;BME280;49654;51.142;14.924;2023-04-27T11:50:22;99561.31;;;18.33;25.91
63500;BME280;49654;51.142;14.924;2023-04-27T11:52:50;99562.44;;;17.42;28.83
63500;BME280;49654;51.142;14.924;2023-04-27T11:55:20;99559.97;;;17.99;30.34
63500;BME280;49654;51.142;14.924;2023-04-27T11:57:47;99566.16;;;17.28;28.39
63500;BME280;49654;51.142;14.924;2023-04-27T12:00:15;99564.88;;;16.39;28.67
63500;BME280;49654;51.142;14.924;2023-04-27T12:02:43;99569.16;;;15.52;30.54
63500;BME280;49654;51.142;14.924;2023-04-27T12:05:10;99550.56;;;15.82;31.96
63500;BME280;49654;51.142;14.924;2023-04-27T12:07:37;99548.47;;;15.10;29.76
63500;BME280;49654;51.142;14.924;2023-04-27T12:10:05;99578.59;;;15.40;31.50
63500;BME280;49654;51.142;14.924;2023-04-27T12:12:34;99574.16;;;15.89;31.02
63500;BME280;49654;51.142;14.924;2023-04-27T12:15:02;99573.34;;;16.48;28.96
63500;BME280;49654;51.142;14.924;2023-04-27T12:17:29;99564.19;;;19.12;26.97
63500;BME280;49654;51.142;14.924;2023-04-27T12:19:56;99563.06;;;21.39;23.51
63500;BME280;49654;51.142;14.924;2023-04-27T12:22:23;99563.31;;;20.08;24.62
63500;BME280;49654;51.142;14.924;2023-04-27T12:24:50;99568.22;;;18.52;25.27
63500;BME280;49654;51.142;14.924;2023-04-27T12:27:17;99566.84;;;18.25;28.06
63500;BME280;49654;51.142;14.924;2023-04-27T12:29:45;99526.78;;;15.97;30.20
63500;BME280;49654;51.142;14.924;2023-04-27T12:32:12;99571.31;;;20.90;25.14
63500;BME280;49654;51.142;14.924;2023-04-27T12:34:39;99527.97;;;23.66;20.29
63500;BME280;49654;51.142;14.924;2023-04-27T12:37:07;99526.72;;;25.01;19.85
63500;BME280;49654;51.142;14.924;2023-04-27T12:39:34;99551.41;;;26.61;17.54
63500;BME280;49654;51.142;14.924;2023-04-27T12:42:01;99517.59;;;22.71;19.94
63500;BME280;49654;51.142;14.924;2023-04-27T12:44:28;99561.53;;;22.34;22.30
63500;BME280;49654;51.142;14.924;2023-04-27T12:46:57;99544.78;;;24.09;19.92
63500;BME280;49654;51.142;14.924;2023-04-27T12:49:24;99501.59;;;25.23;17.59
63500;BME280;49654;51.142;14.924;2023-04-27T12:51:51;99551.59;;;26.80;17.63
63500;BME280;49654;51.142;14.924;2023-04-27T12:54:19;99537.03;;;25.75;17.51
63500;BME280;49654;51.142;14.924;2023-04-27T12:56:45;99554.03;;;25.69;17.91
63500;BME280;49654;51.142;14.924;2023-04-27T12:59:12;99548.22;;;26.43;16.69